Time;durP1;ratioP1;P1;durP2;ratioP2;P2;SDS_P1;SDS_P2;PMS_P1;PMS_P2;Temp;Humidity;BMP_temperature;BMP_pressure;BME280_temperature;BME280_humidity;BME280_pressure;Samples;Min_cycle;Max_cycle;Signal;HPM_P1;HPM_P2
2023/02/02 00:01:26;;;;;;;7.68;3.72;;;;;;;2.31;58.86;94865.69;5051679;28;20029;-72
2023/02/02 00:03:52;;;;;;;8.30;3.92;;;;;;;2.41;59.28;94860.94;5052816;28;20071;-72
2023/02/02 00:06:21;;;;;;;6.50;4.13;;;;;;;2.39;59.67;94855.06;5015124;28;20495;-73
2023/02/02 00:08:46;;;;;;;6.25;3.75;;;;;;;2.40;58.64;94860.13;5015555;28;20084;-72
2023/02/02 00:11:12;;;;;;;5.97;3.42;;;;;;;2.46;58.41;94864.13;5031670;28;20033;-73
2023/02/02 00:13:38;;;;;;;4.47;2.80;;;;;;;2.50;57.63;94855.34;5005870;28;20026;-72
2023/02/02 00:16:25;;;;;;;7.72;3.55;;;;;;;2.60;55.02;94856.53;5020467;28;20041;-73
2023/02/02 00:18:58;;;;;;;6.03;3.45;;;;;;;2.62;55.66;94848.78;5046672;28;20043;-72
2023/02/02 00:21:24;;;;;;;8.05;4.53;;;;;;;2.64;55.59;94831.56;5023935;28;20036;-72
2023/02/02 00:23:49;;;;;;;6.63;3.17;;;;;;;2.82;55.21;94863.16;5050689;28;20028;-72
2023/02/02 00:26:15;;;;;;;5.90;3.40;;;;;;;2.78;55.48;94838.53;5023807;28;20056;-73
2023/02/02 00:28:40;;;;;;;6.65;2.83;;;;;;;2.76;53.92;94855.75;5012196;28;20029;-72
2023/02/02 00:31:06;;;;;;;5.72;2.90;;;;;;;2.84;54.81;94853.63;5027250;28;20029;-72
2023/02/02 00:33:31;;;;;;;5.95;2.88;;;;;;;2.87;55.59;94856.03;5032620;28;20078;-73
2023/02/02 00:35:57;;;;;;;5.13;2.60;;;;;;;2.90;55.89;94855.88;5050036;28;20041;-73
2023/02/02 00:38:22;;;;;;;4.40;2.30;;;;;;;2.86;55.96;94849.25;5048516;28;20111;-73
2023/02/02 00:40:48;;;;;;;4.60;2.50;;;;;;;2.91;55.86;94860.09;5042391;28;20083;-73
2023/02/02 00:43:13;;;;;;;5.25;2.28;;;;;;;2.97;53.87;94859.78;5040078;28;20025;-72
2023/02/02 00:45:39;;;;;;;7.38;3.20;;;;;;;2.95;53.17;94864.16;5048641;28;20083;-73
2023/02/02 00:48:04;;;;;;;6.50;2.67;;;;;;;2.99;51.54;94863.09;5048748;28;20103;-72
2023/02/02 00:50:30;;;;;;;5.13;2.70;;;;;;;3.03;52.82;94879.97;5039525;28;20021;-74
2023/02/02 00:52:57;;;;;;;5.85;2.80;;;;;;;3.08;52.25;94882.31;5034311;28;20481;-72
2023/02/02 00:55:23;;;;;;;6.40;3.10;;;;;;;3.19;52.22;94877.44;5030525;28;20025;-73
2023/02/02 00:57:49;;;;;;;4.28;2.63;;;;;;;3.32;52.82;94869.94;5047441;28;20040;-72
2023/02/02 01:00:19;;;;;;;5.38;3.08;;;;;;;3.38;52.39;94868.78;5032168;28;20025;-73
2023/02/02 01:02:45;;;;;;;5.43;2.93;;;;;;;3.35;51.84;94854.34;5031162;28;20029;-72
2023/02/02 01:05:10;;;;;;;4.28;2.40;;;;;;;3.35;52.72;94860.31;5030412;28;20374;-72
2023/02/02 01:07:36;;;;;;;5.35;2.25;;;;;;;3.28;52.55;94865.84;5042691;28;20063;-72
2023/02/02 01:10:02;;;;;;;5.85;1.95;;;;;;;3.29;52.99;94862.41;5050435;28;20302;-72
2023/02/02 01:12:28;;;;;;;4.70;2.20;;;;;;;3.30;53.38;94852.03;5050411;28;20252;-72
2023/02/02 01:14:53;;;;;;;3.97;1.83;;;;;;;3.29;53.02;94852.94;5049453;28;20029;-72
2023/02/02 01:17:19;;;;;;;4.03;2.15;;;;;;;3.39;53.00;94855.00;5013731;28;20048;-73
2023/02/02 01:19:44;;;;;;;3.15;1.92;;;;;;;3.34;52.95;94847.53;5031294;28;20099;-73
2023/02/02 01:22:10;;;;;;;6.20;3.08;;;;;;;3.33;53.05;94826.19;5018938;28;20049;-72
2023/02/02 01:24:35;;;;;;;4.70;2.63;;;;;;;3.36;53.23;94843.16;5014593;28;20056;-72
2023/02/02 01:27:01;;;;;;;3.67;2.30;;;;;;;3.39;53.40;94837.03;5041797;28;20044;-73
2023/02/02 01:29:26;;;;;;;3.28;1.80;;;;;;;3.34;54.19;94837.28;5039422;28;20111;-73
2023/02/02 01:31:51;;;;;;;6.32;2.13;;;;;;;3.36;54.34;94840.59;5031194;28;20041;-72
2023/02/02 01:34:17;;;;;;;4.13;2.17;;;;;;;3.25;54.44;94827.50;5013635;28;20022;-72
2023/02/02 01:36:42;;;;;;;4.25;2.03;;;;;;;3.16;55.32;94836.53;5031418;28;20059;-73
2023/02/02 01:39:08;;;;;;;4.65;1.90;;;;;;;3.07;54.94;94835.28;5051076;28;20028;-72
2023/02/02 01:41:33;;;;;;;3.85;1.98;;;;;;;2.86;56.35;94815.88;5048036;28;20044;-73
2023/02/02 01:44:01;;;;;;;3.88;2.10;;;;;;;2.92;57.00;94825.81;5036024;28;20079;-72
2023/02/02 01:46:36;;;;;;;3.40;2.15;;;;;;;2.86;56.15;94821.84;5027473;28;20040;-72
2023/02/02 01:49:11;;;;;;;3.50;1.85;;;;;;;2.80;56.62;94805.94;5032803;28;20036;-72
2023/02/02 01:51:47;;;;;;;4.38;2.33;;;;;;;2.90;55.62;94822.53;5040555;28;20396;-72
2023/02/02 01:54:21;;;;;;;3.35;1.80;;;;;;;2.82;56.30;94817.78;5034955;28;20069;-73
2023/02/02 01:56:51;;;;;;;5.05;1.80;;;;;;;2.61;57.78;94812.03;5029297;28;20036;-73
2023/02/02 01:59:17;;;;;;;3.33;2.08;;;;;;;2.43;57.73;94797.59;5035600;28;20497;-72
2023/02/02 02:01:43;;;;;;;4.45;2.58;;;;;;;2.50;57.14;94809.19;5041510;28;20067;-72
2023/02/02 02:04:09;;;;;;;6.63;3.05;;;;;;;2.38;56.32;94781.63;5029681;28;20029;-72
2023/02/02 02:06:34;;;;;;;7.30;3.15;;;;;;;2.48;56.08;94795.63;5030428;28;20075;-72
2023/02/02 02:09:04;;;;;;;4.75;3.00;;;;;;;2.39;56.27;94783.25;5004381;28;20091;-72
2023/02/02 02:11:31;;;;;;;4.78;2.75;;;;;;;2.52;56.23;94804.81;5025487;28;20033;-72
2023/02/02 02:16:51;;;;;;;4.18;2.58;;;;;;;2.66;55.59;94811.78;5020846;28;20083;-72
2023/02/02 02:19:32;;;;;;;6.13;3.45;;;;;;;2.60;55.66;94815.50;5032213;28;20033;-73
2023/02/02 02:28:38;;;;;;;5.07;2.88;;;;;;;2.47;56.30;94824.72;5035647;28;20072;-72
2023/02/02 02:31:06;;;;;;;5.75;2.80;;;;;;;2.35;57.29;94812.53;5032696;28;20044;-72
2023/02/02 02:33:57;;;;;;;4.57;2.60;;;;;;;2.24;57.56;94828.47;5031431;28;20029;-73
2023/02/02 02:36:37;;;;;;;4.90;3.03;;;;;;;2.20;57.10;94830.34;5026816;28;20036;-72
2023/02/02 02:39:11;;;;;;;7.63;3.28;;;;;;;2.31;54.81;94819.53;5041641;28;20072;-72
2023/02/02 02:41:44;;;;;;;4.82;2.78;;;;;;;2.40;54.51;94821.66;5019146;28;20115;-72
2023/02/02 02:44:10;;;;;;;3.65;2.50;;;;;;;2.42;52.74;94811.31;5013190;28;20102;-72
2023/02/02 02:46:36;;;;;;;6.43;2.80;;;;;;;2.57;52.38;94812.28;5040970;28;20037;-73
2023/02/02 02:49:01;;;;;;;4.50;2.50;;;;;;;2.54;52.39;94810.69;5008113;28;20042;-72
2023/02/02 02:51:42;;;;;;;6.70;2.80;;;;;;;2.71;51.56;94816.69;5042593;28;20044;-73
2023/02/02 02:54:09;;;;;;;4.18;2.50;;;;;;;2.68;51.85;94810.81;5029084;28;20026;-72
2023/02/02 02:56:43;;;;;;;3.67;2.30;;;;;;;2.69;51.95;94809.06;5022955;28;20044;-72
2023/02/02 02:59:34;;;;;;;4.00;2.53;;;;;;;2.61;52.83;94809.47;5049060;28;20109;-72
2023/02/02 03:02:18;;;;;;;4.18;2.33;;;;;;;2.57;53.50;94810.53;5034825;28;20037;-72
2023/02/02 03:04:43;;;;;;;3.92;2.55;;;;;;;2.56;53.53;94814.00;5053972;28;20090;-73
2023/02/02 03:07:12;;;;;;;7.65;3.15;;;;;;;2.53;53.67;94815.91;5052804;28;20073;-72
2023/02/02 03:09:39;;;;;;;4.43;2.40;;;;;;;2.42;54.02;94806.19;5018772;28;20462;-72
2023/02/02 03:12:05;;;;;;;5.13;2.60;;;;;;;2.35;54.61;94804.84;5016455;28;20044;-72
2023/02/02 03:14:34;;;;;;;4.38;2.42;;;;;;;2.37;54.01;94810.75;5016125;28;20037;-72
2023/02/02 03:17:00;;;;;;;5.82;2.92;;;;;;;2.20;55.10;94802.16;5033268;28;20045;-72
2023/02/02 03:19:25;;;;;;;6.13;2.65;;;;;;;2.21;53.80;94805.56;5034782;28;20025;-72
2023/02/02 03:21:50;;;;;;;4.05;2.50;;;;;;;2.22;54.74;94809.75;5044489;28;20044;-72
2023/02/02 03:24:16;;;;;;;4.10;2.30;;;;;;;2.14;55.06;94805.00;5035116;28;20040;-72
2023/02/02 03:26:41;;;;;;;5.97;2.40;;;;;;;2.17;55.71;94802.31;5039286;28;20045;-72
2023/02/02 03:29:07;;;;;;;3.20;2.13;;;;;;;2.10;56.38;94800.94;5052293;28;20021;-72
2023/02/02 03:31:32;;;;;;;4.43;2.50;;;;;;;2.13;56.08;94805.09;5032094;28;20434;-73
2023/02/02 03:33:58;;;;;;;6.22;2.42;;;;;;;2.01;56.40;94801.41;5042512;28;20025;-72
2023/02/02 03:36:23;;;;;;;4.22;2.30;;;;;;;1.97;56.61;94805.03;5031778;28;20041;-72
2023/02/02 03:38:48;;;;;;;3.80;2.25;;;;;;;1.95;55.23;94812.81;5046057;28;20041;-72
2023/02/02 03:41:14;;;;;;;5.00;2.50;;;;;;;1.82;55.24;94806.63;5029999;28;20037;-72
2023/02/02 03:43:39;;;;;;;3.72;2.25;;;;;;;1.63;56.55;94806.66;4999124;28;20087;-72
2023/02/02 03:46:05;;;;;;;5.13;2.90;;;;;;;1.68;56.13;94811.56;5034245;28;20041;-72
2023/02/02 03:48:31;;;;;;;5.35;2.95;;;;;;;1.76;56.28;94819.72;5031870;28;20040;-72
2023/02/02 03:50:56;;;;;;;4.25;2.55;;;;;;;1.76;56.64;94812.88;5043063;28;20486;-72
2023/02/02 03:53:22;;;;;;;5.93;2.80;;;;;;;1.81;55.63;94797.25;5011884;28;20120;-72
2023/02/02 03:55:47;;;;;;;5.80;2.65;;;;;;;1.83;56.88;94820.25;5004595;28;20453;-72
2023/02/02 03:58:13;;;;;;;5.53;2.88;;;;;;;1.67;57.35;94817.59;5032387;28;20030;-73
2023/02/02 04:00:38;;;;;;;5.53;2.90;;;;;;;1.65;57.16;94827.91;5046888;28;20060;-72
2023/02/02 04:03:04;;;;;;;7.15;3.97;;;;;;;1.49;56.67;94801.38;5032942;28;20484;-72
2023/02/02 04:05:29;;;;;;;5.93;3.00;;;;;;;1.69;56.76;94826.84;5041430;28;20593;-72
2023/02/02 04:07:54;;;;;;;6.10;3.28;;;;;;;1.58;57.73;94823.97;5044481;28;20033;-72
2023/02/02 04:10:20;;;;;;;5.50;3.00;;;;;;;1.43;58.65;94832.41;5044862;28;20099;-72
2023/02/02 04:12:45;;;;;;;6.30;2.95;;;;;;;1.32;60.11;94814.97;5047846;28;20108;-72
2023/02/02 04:15:11;;;;;;;5.57;3.90;;;;;;;1.41;58.46;94822.22;5024794;28;20025;-72
2023/02/02 04:17:37;;;;;;;4.53;3.03;;;;;;;1.32;59.16;94832.91;5051357;28;20095;-72
2023/02/02 04:20:03;;;;;;;6.03;3.50;;;;;;;1.37;58.93;94825.00;5034528;28;20033;-73
2023/02/02 04:22:29;;;;;;;7.32;4.35;;;;;;;1.40;60.03;94817.19;5038797;28;20519;-72
2023/02/02 04:24:54;;;;;;;9.05;4.60;;;;;;;1.36;59.82;94841.25;5030293;28;20041;-72
2023/02/02 04:27:20;;;;;;;5.75;3.50;;;;;;;1.33;59.72;94829.41;5032179;28;20061;-72
2023/02/02 04:29:45;;;;;;;5.45;3.38;;;;;;;1.30;60.77;94838.06;5045618;28;20026;-72
2023/02/02 04:32:11;;;;;;;4.47;2.72;;;;;;;1.14;60.99;94833.72;5040378;28;20052;-72
2023/02/02 04:34:36;;;;;;;23.67;9.35;;;;;;;0.78;60.58;94837.88;5033052;28;20041;-72
2023/02/02 04:37:02;;;;;;;35.28;12.38;;;;;;;0.66;61.70;94831.56;5034619;28;20040;-72
2023/02/02 04:39:29;;;;;;;42.58;16.00;;;;;;;0.67;61.89;94840.09;5031004;28;20045;-72
2023/02/02 04:41:55;;;;;;;39.83;14.27;;;;;;;0.44;62.96;94829.09;5033468;28;20040;-72
2023/02/02 04:44:20;;;;;;;16.42;6.43;;;;;;;0.59;61.28;94845.53;5037809;28;20487;-72
2023/02/02 04:46:46;;;;;;;13.73;5.75;;;;;;;0.46;62.54;94829.06;5019924;28;20495;-72
2023/02/02 04:49:11;;;;;;;14.00;6.97;;;;;;;0.51;63.90;94832.25;5026412;28;20037;-72
2023/02/02 04:51:38;;;;;;;6.75;3.55;;;;;;;0.29;64.16;94834.06;5039140;28;20025;-72
2023/02/02 04:54:04;;;;;;;8.10;4.88;;;;;;;0.34;63.99;94861.09;5051869;28;20467;-72
2023/02/02 04:56:29;;;;;;;4.28;3.20;;;;;;;0.31;63.79;94845.88;5030620;28;20045;-72
2023/02/02 04:58:55;;;;;;;6.43;3.50;;;;;;;0.26;62.54;94852.09;5030683;28;20076;-72
2023/02/02 05:01:21;;;;;;;38.40;19.92;;;;;;;0.20;62.85;94840.41;5032144;28;20033;-72
2023/02/02 05:03:47;;;;;;;37.63;19.42;;;;;;;0.03;63.24;94832.56;5014152;28;20029;-72
2023/02/02 05:06:12;;;;;;;11.63;6.82;;;;;;;0.08;63.59;94841.72;5030583;28;20044;-72
2023/02/02 05:08:38;;;;;;;8.63;6.95;;;;;;;0.12;64.60;94842.44;5030374;28;20121;-72
2023/02/02 05:11:17;;;;;;;8.48;5.03;;;;;;;0.12;63.47;94840.72;5030520;28;20105;-72
2023/02/02 05:13:52;;;;;;;9.07;4.40;;;;;;;0.16;63.76;94856.72;4998873;28;20044;-72
2023/02/02 05:16:18;;;;;;;7.18;4.00;;;;;;;0.13;64.19;94847.47;5029857;28;20026;-72
2023/02/02 05:18:55;;;;;;;6.93;3.22;;;;;;;0.19;62.16;94838.72;5013809;28;20034;-72
2023/02/02 05:21:21;;;;;;;6.80;3.00;;;;;;;0.22;61.27;94838.59;5046687;28;20108;-72
2023/02/02 05:23:46;;;;;;;3.60;2.10;;;;;;;0.26;61.69;94829.09;5032966;28;20048;-72
2023/02/02 05:26:19;;;;;;;7.10;4.18;;;;;;;0.32;63.00;94846.72;5036835;28;20045;-72
2023/02/02 05:28:45;;;;;;;57.42;21.63;;;;;;;0.22;63.27;94856.47;5032524;28;20030;-72
2023/02/02 05:31:10;;;;;;;79.35;24.88;;;;;;;0.08;62.09;94840.88;5039021;28;20102;-72
2023/02/02 05:33:36;;;;;;;97.45;27.45;;;;;;;0.19;62.14;94843.81;5025255;28;20450;-72
2023/02/02 05:36:01;;;;;;;100.30;27.02;;;;;;;-0.03;63.13;94823.44;5040743;28;20033;-72
2023/02/02 05:38:27;;;;;;;92.80;26.15;;;;;;;0.06;62.20;94832.47;5020928;28;20056;-72
2023/02/02 05:40:52;;;;;;;31.20;14.02;;;;;;;-0.07;63.98;94850.03;5028745;28;20037;-72
2023/02/02 05:43:18;;;;;;;40.13;16.55;;;;;;;0.01;63.86;94849.72;5013912;28;20412;-72
2023/02/02 05:45:43;;;;;;;47.22;17.77;;;;;;;-0.02;63.90;94851.50;5026658;28;20048;-72
2023/02/02 05:48:12;;;;;;;40.92;16.52;;;;;;;0.05;63.66;94848.69;5045239;28;20029;-72
2023/02/02 05:50:38;;;;;;;49.50;18.35;;;;;;;-0.07;64.41;94863.63;5043756;28;20044;-72
2023/02/02 05:53:03;;;;;;;41.95;18.35;;;;;;;-0.11;64.46;94869.75;5025874;28;20554;-72
2023/02/02 05:55:29;;;;;;;40.55;17.17;;;;;;;-0.17;64.53;94869.97;5010361;28;20418;-72
2023/02/02 05:57:54;;;;;;;42.45;18.73;;;;;;;-0.18;63.96;94880.25;5042019;28;20043;-72
2023/02/02 06:00:20;;;;;;;37.72;18.38;;;;;;;-0.33;65.29;94849.34;5039878;28;20113;-72
2023/02/02 06:02:46;;;;;;;37.67;18.20;;;;;;;-0.35;65.04;94863.06;5038147;28;20119;-71
2023/02/02 06:05:11;;;;;;;32.42;14.98;;;;;;;-0.27;64.56;94859.31;5045755;28;20029;-72
2023/02/02 06:07:37;;;;;;;42.10;18.13;;;;;;;-0.28;65.32;94880.63;5045736;28;20406;-72
2023/02/02 06:10:03;;;;;;;42.25;21.10;;;;;;;-0.07;65.13;94868.72;5045136;28;20094;-72
2023/02/02 06:12:28;;;;;;;29.77;15.35;;;;;;;-0.07;65.79;94873.84;5027545;28;20039;-72
2023/02/02 06:14:54;;;;;;;26.33;12.52;;;;;;;-0.19;65.83;94870.97;5044606;28;20427;-72
2023/02/02 06:17:19;;;;;;;22.15;11.32;;;;;;;-0.18;65.77;94880.25;5040552;28;20390;-72
2023/02/02 06:19:45;;;;;;;26.98;13.68;;;;;;;-0.28;65.89;94850.00;5011343;28;20029;-72
2023/02/02 06:22:10;;;;;;;20.98;11.60;;;;;;;-0.07;65.64;94880.66;5042877;28;20576;-72
2023/02/02 06:24:35;;;;;;;22.75;12.35;;;;;;;-0.04;65.77;94886.47;5025263;28;20029;-72
2023/02/02 06:27:01;;;;;;;26.58;13.93;;;;;;;-0.01;66.10;94891.44;5046974;28;20045;-72
2023/02/02 06:29:26;;;;;;;24.38;13.93;;;;;;;0.02;65.61;94898.16;5045396;28;20090;-72
2023/02/02 06:31:52;;;;;;;31.88;15.65;;;;;;;0.14;65.36;94899.38;5041536;28;20514;-73
2023/02/02 06:34:17;;;;;;;23.35;13.32;;;;;;;0.26;65.33;94910.84;5022183;28;20033;-72
2023/02/02 06:36:43;;;;;;;21.35;12.57;;;;;;;0.26;65.63;94908.31;5040342;28;20123;-72
2023/02/02 06:39:08;;;;;;;23.63;13.90;;;;;;;0.39;65.28;94906.88;5040712;28;20530;-72
2023/02/02 06:41:34;;;;;;;26.35;13.98;;;;;;;0.32;65.30;94890.97;5039953;28;20028;-72
2023/02/02 06:43:59;;;;;;;20.42;11.63;;;;;;;0.38;64.71;94893.28;5048660;28;20037;-72
2023/02/02 06:46:25;;;;;;;18.35;11.40;;;;;;;0.43;64.87;94916.91;5028666;28;20029;-72
2023/02/02 06:48:50;;;;;;;20.45;11.70;;;;;;;0.41;65.33;94915.31;5015735;28;20048;-72
2023/02/02 06:51:16;;;;;;;17.95;11.43;;;;;;;0.64;64.74;94929.69;5039444;28;20560;-72
2023/02/02 06:53:41;;;;;;;20.33;11.88;;;;;;;0.66;64.56;94926.16;5039859;28;20040;-72
2023/02/02 06:56:10;;;;;;;19.27;11.23;;;;;;;0.80;64.86;94917.91;5038913;28;20091;-72
2023/02/02 06:58:36;;;;;;;18.75;11.40;;;;;;;0.72;65.07;94919.13;5025605;28;20022;-72
2023/02/02 07:01:06;;;;;;;18.73;12.25;;;;;;;0.74;65.04;94902.84;5027388;28;20024;-72
2023/02/02 07:03:31;;;;;;;21.75;15.02;;;;;;;0.71;64.71;94912.38;5045856;28;20029;-73
2023/02/02 07:05:57;;;;;;;23.40;14.18;;;;;;;0.86;64.48;94920.22;5016631;28;20044;-72
2023/02/02 07:08:22;;;;;;;19.35;13.40;;;;;;;0.89;65.23;94924.34;5026833;28;20048;-72
2023/02/02 07:10:47;;;;;;;21.73;13.40;;;;;;;1.00;65.04;94924.72;5044971;28;20080;-72
2023/02/02 07:13:13;;;;;;;21.85;12.27;;;;;;;1.07;65.34;94935.53;5045790;28;20033;-72
2023/02/02 07:15:39;;;;;;;25.58;13.52;;;;;;;1.11;64.83;94937.03;5047337;28;20041;-72
2023/02/02 07:18:04;;;;;;;22.55;13.02;;;;;;;1.07;64.60;94943.22;5042233;28;20041;-72
2023/02/02 07:20:30;;;;;;;27.73;14.13;;;;;;;1.08;64.58;94938.00;5023145;28;20545;-71
2023/02/02 07:22:55;;;;;;;26.75;14.52;;;;;;;1.21;64.17;94919.56;5052841;28;20033;-71
2023/02/02 07:25:21;;;;;;;21.38;12.23;;;;;;;1.39;63.91;94928.97;5053264;28;20036;-71
2023/02/02 07:27:50;;;;;;;20.83;12.43;;;;;;;1.52;64.16;94934.38;5031667;28;20053;-71
2023/02/02 07:30:16;;;;;;;22.38;14.02;;;;;;;1.58;64.08;94951.19;5033957;28;20036;-71
2023/02/02 07:32:46;;;;;;;22.75;13.40;;;;;;;1.73;62.74;94935.97;5051765;28;20403;-71
2023/02/02 07:35:11;;;;;;;24.42;14.00;;;;;;;1.71;63.88;94936.94;5052091;28;20043;-71
2023/02/02 07:37:37;;;;;;;20.02;12.90;;;;;;;1.57;63.43;94899.16;5052358;28;20500;-71
2023/02/02 07:40:02;;;;;;;26.25;12.77;;;;;;;1.44;63.61;94915.97;5053438;28;20414;-71
2023/02/02 07:42:27;;;;;;;26.30;13.13;;;;;;;1.78;63.47;94934.03;5051530;28;20431;-71
2023/02/02 07:44:53;;;;;;;29.27;16.65;;;;;;;1.67;63.54;94931.13;5049955;28;20032;-71
2023/02/02 07:47:18;;;;;;;26.02;15.18;;;;;;;2.21;62.05;94938.84;5032980;28;20033;-71
2023/02/02 07:49:44;;;;;;;24.58;13.90;;;;;;;2.04;62.21;94918.31;5049813;28;20025;-71
2023/02/02 07:52:10;;;;;;;23.02;13.63;;;;;;;2.16;61.57;94933.94;5051604;28;20139;-71
2023/02/02 07:54:35;;;;;;;35.22;19.38;;;;;;;2.36;60.43;94916.75;5049762;28;20110;-71
2023/02/02 07:57:01;;;;;;;26.63;15.15;;;;;;;2.26;60.97;94902.72;5049936;28;20047;-71
2023/02/02 07:59:26;;;;;;;60.55;26.45;;;;;;;2.65;60.69;94894.81;5035376;28;20368;-71
2023/02/02 08:01:52;;;;;;;51.92;24.85;;;;;;;4.45;56.91;94898.78;5034972;28;20481;-71
2023/02/02 08:04:17;;;;;;;46.92;25.08;;;;;;;5.98;52.61;94881.00;5052872;28;20029;-71
2023/02/02 08:06:43;;;;;;;34.65;21.13;;;;;;;7.46;47.91;94870.25;5018540;28;20092;-72
2023/02/02 08:09:08;;;;;;;67.35;43.45;;;;;;;8.29;45.70;94854.81;5051555;28;20032;-71
2023/02/02 08:11:35;;;;;;;37.97;27.67;;;;;;;9.60;43.07;94874.34;5051558;28;20037;-72
2023/02/02 08:14:01;;;;;;;29.10;18.73;;;;;;;9.96;41.72;94853.41;5034995;28;20040;-72
2023/02/02 08:16:27;;;;;;;34.15;24.35;;;;;;;9.61;41.83;94847.47;5051237;28;20037;-72
2023/02/02 08:18:52;;;;;;;33.85;20.88;;;;;;;8.49;43.10;94849.97;5051686;28;20033;-72
2023/02/02 08:21:18;;;;;;;31.55;17.80;;;;;;;8.15;44.98;94857.59;5034832;28;20493;-72
2023/02/02 08:23:44;;;;;;;25.15;14.93;;;;;;;8.01;44.72;94842.25;5051274;28;20033;-72
2023/02/02 08:26:21;;;;;;;17.45;10.68;;;;;;;7.76;44.28;94844.00;5018132;28;20057;-72
2023/02/02 08:28:47;;;;;;;16.83;10.45;;;;;;;7.48;45.53;94845.13;5018168;28;20521;-71
2023/02/02 08:31:17;;;;;;;14.45;9.55;;;;;;;7.34;45.87;94860.78;5034701;28;20033;-72
2023/02/02 08:33:43;;;;;;;17.85;10.35;;;;;;;6.88;46.58;94849.25;5051093;28;20414;-71
2023/02/02 08:36:15;;;;;;;21.35;12.68;;;;;;;6.29;47.90;94830.81;5051038;28;20255;-71
2023/02/02 08:38:41;;;;;;;20.42;12.45;;;;;;;6.57;47.68;94855.63;5034864;28;20055;-71
2023/02/02 08:41:07;;;;;;;17.30;9.82;;;;;;;6.60;47.56;94852.88;5052311;28;20033;-71
2023/02/02 08:43:33;;;;;;;14.68;9.93;;;;;;;6.59;48.09;94852.97;5034341;28;20094;-71
2023/02/02 08:45:58;;;;;;;13.38;8.63;;;;;;;6.40;48.22;94853.34;5052198;28;20111;-71
2023/02/02 08:48:24;;;;;;;14.07;8.57;;;;;;;6.38;48.19;94850.03;5050811;28;20392;-71
2023/02/02 08:50:53;;;;;;;15.02;9.23;;;;;;;6.28;48.58;94843.84;5051943;28;20445;-71
2023/02/02 08:53:19;;;;;;;19.23;10.82;;;;;;;5.95;49.57;94834.78;5050773;28;20100;-71
2023/02/02 08:55:44;;;;;;;20.73;12.07;;;;;;;6.04;49.08;94832.44;5050537;28;20052;-71
2023/02/02 08:58:09;;;;;;;12.63;8.45;;;;;;;5.99;48.60;94836.22;5033856;28;20036;-71
2023/02/02 09:00:35;;;;;;;10.63;7.50;;;;;;;5.90;48.51;94839.34;5050134;28;20037;-70
2023/02/02 09:03:00;;;;;;;16.67;10.30;;;;;;;5.66;50.33;94850.31;5052005;28;20170;-70
2023/02/02 09:05:26;;;;;;;12.07;8.25;;;;;;;5.74;50.72;94840.34;5050599;28;20025;-70
2023/02/02 09:07:51;;;;;;;14.23;8.20;;;;;;;5.77;50.96;94865.13;5052085;28;20503;-71
2023/02/02 09:10:17;;;;;;;15.15;9.00;;;;;;;5.38;50.44;94834.00;5033777;28;20052;-71
2023/02/02 09:12:42;;;;;;;14.57;6.70;;;;;;;4.90;50.82;94846.38;5050518;28;20021;-70
2023/02/02 09:15:08;;;;;;;10.77;7.10;;;;;;;4.67;51.79;94822.00;5050408;28;20412;-70
2023/02/02 09:17:34;;;;;;;18.13;9.95;;;;;;;4.65;52.66;94830.72;5050235;28;20462;-71
2023/02/02 09:19:59;;;;;;;21.15;12.05;;;;;;;4.66;53.25;94830.66;5034085;28;20036;-72
2023/02/02 09:22:25;;;;;;;31.50;14.98;;;;;;;4.64;53.27;94831.66;5050388;28;20029;-72
2023/02/02 09:24:50;;;;;;;33.15;15.57;;;;;;;4.82;52.73;94825.41;5051356;28;20033;-70
2023/02/02 09:27:15;;;;;;;16.13;10.45;;;;;;;4.97;52.65;94830.56;5049935;28;20049;-70
2023/02/02 09:29:41;;;;;;;11.18;7.05;;;;;;;4.83;52.29;94816.75;5051261;28;20029;-69
2023/02/02 09:32:06;;;;;;;9.20;6.05;;;;;;;4.53;52.18;94803.97;5050262;28;20047;-69
2023/02/02 09:34:32;;;;;;;12.05;6.55;;;;;;;4.85;52.79;94822.66;5051204;28;20025;-70
2023/02/02 09:36:57;;;;;;;11.65;6.30;;;;;;;5.05;51.43;94820.63;5049934;28;20414;-70
2023/02/02 09:39:23;;;;;;;10.50;6.85;;;;;;;4.86;52.16;94806.28;5049859;28;20052;-72
2023/02/02 09:41:55;;;;;;;12.68;6.90;;;;;;;4.83;51.50;94816.75;5050016;28;20086;-72
2023/02/02 09:44:36;;;;;;;9.07;6.35;;;;;;;5.36;50.79;94817.81;5049662;28;20078;-72
2023/02/02 09:47:07;;;;;;;10.57;6.90;;;;;;;5.64;50.27;94798.03;5051330;28;20033;-70
2023/02/02 09:49:35;;;;;;;10.18;5.82;;;;;;;5.97;48.59;94802.00;5050948;28;20268;-70
2023/02/02 09:52:04;;;;;;;9.32;6.00;;;;;;;6.07;47.37;94789.31;5028873;28;20037;-70
2023/02/02 09:54:35;;;;;;;7.68;4.80;;;;;;;6.22;46.39;94799.44;5028320;28;20044;-70
2023/02/02 09:57:01;;;;;;;;;;;;;;;6.17;48.22;94780.03;5030144;28;20041;-70
2023/02/02 09:59:28;;;;;;;;;;;;;;;6.42;44.56;94789.56;5030131;28;19917;-70
2023/02/02 10:01:56;;;;;;;;;;;;;;;6.51;46.30;94793.28;5030057;28;19963;-70
2023/02/02 10:04:35;;;;;;;;;;;;;;;6.45;46.51;94786.78;5029062;28;20369;-70
2023/02/02 10:07:04;;;;;;;;;;;;;;;6.15;47.60;94777.56;5013520;28;19917;-70
2023/02/02 10:09:29;;;;;;;;;;;;;;;6.68;47.22;94786.03;5013536;28;19921;-70
2023/02/02 10:11:58;;;;;;;;;;;;;;;6.87;46.97;94784.78;5030667;28;20019;-71
2023/02/02 10:14:24;;;;;;;;;;;;;;;6.70;45.88;94773.84;5031174;28;19924;-71
2023/02/02 10:16:51;;;;;;;;;;;;;;;6.51;46.43;94763.13;5030109;28;19921;-70
2023/02/02 10:19:16;;;;;;;;;;;;;;;6.40;46.04;94760.44;5029984;28;19917;-70
2023/02/02 10:21:52;;;;;;;;;;;;;;;6.57;45.14;94757.53;5029988;28;19924;-71
2023/02/02 10:24:17;;;;;;;;;;;;;;;6.61;45.72;94755.59;5029933;28;19917;-70
2023/02/02 10:26:44;;;;;;;;;;;;;;;6.68;45.30;94751.66;5031358;28;20343;-71
2023/02/02 10:29:13;;;;;;;;;;;;;;;6.67;45.84;94748.25;5029935;28;20062;-71
2023/02/02 10:31:38;;;;;;;;;;;;;;;6.80;45.68;94744.81;5031246;28;19924;-71
2023/02/02 10:34:10;;;;;;;;;;;;;;;6.95;45.88;94743.78;5029811;28;20311;-71
2023/02/02 10:36:56;;;;;;;;;;;;;;;7.01;45.56;94738.16;5013348;28;19924;-71
2023/02/02 10:39:27;;;;;;;;;;;;;;;7.21;44.36;94744.53;5029631;28;20429;-70
2023/02/02 10:41:52;;;;;;;;;;;;;;;7.35;43.88;94748.72;5029899;28;19924;-70
2023/02/02 10:44:17;;;;;;;;;;;;;;;7.48;42.76;94728.81;5030941;28;19917;-71
2023/02/02 10:46:44;;;;;;;;;;;;;;;7.73;42.89;94724.47;5029574;28;20018;-71
2023/02/02 10:49:21;;;;;;;;;;;;;;;7.76;41.53;94717.28;5030917;28;19960;-71
2023/02/02 10:51:49;;;;;;;;;;;;;;;7.94;40.00;94704.78;5029712;28;20410;-71
2023/02/02 10:54:38;;;;;;;;;;;;;;;8.23;40.76;94699.19;5013184;28;19917;-71
2023/02/02 10:57:04;;;;;;;;;;;;;;;8.43;38.98;94693.34;5029756;28;20387;-71
2023/02/02 10:59:34;;;;;;;;;;;;;;;8.37;39.33;94686.03;5030820;28;19928;-71
2023/02/02 11:01:59;;;;;;;;;;;;;;;8.50;39.90;94685.94;5029639;28;20086;-71
2023/02/02 11:07:09;;;;;;;;;;;;;;;9.06;38.71;94682.50;5031140;28;19967;-71
2023/02/02 11:09:37;;;;;;;;;;;;;;;9.31;37.14;94682.19;5029447;28;19917;-71
2023/02/02 11:12:02;;;;;;;;;;;;;;;9.50;37.35;94676.34;5029680;28;20363;-71
2023/02/02 11:14:38;;;;;;;;;;;;;;;9.70;36.67;94672.13;5030644;28;19965;-71
2023/02/02 11:17:04;;;;;;;;;;;;;;;9.84;36.05;94671.81;5029538;28;19924;-71
2023/02/02 11:19:30;;;;;;;;;;;;;;;9.94;35.30;94669.28;5030641;28;19920;-71
2023/02/02 11:21:56;;;;;;;;;;;;;;;9.88;34.74;94658.59;5013656;28;19917;-71
2023/02/02 11:24:28;;;;;;;;;;;;;;;9.96;35.01;94664.81;5016663;28;19917;-71
2023/02/02 11:26:54;;;;;;;;;;;;;;;9.85;34.63;94655.31;5040021;28;19917;-71
2023/02/02 11:29:26;;;;;;;;;;;;;;;9.99;35.04;94655.94;5034119;28;19932;-71
2023/02/02 11:31:51;;;;;;;;;;;;;;;10.11;35.09;94654.09;5034337;28;20000;-72
2023/02/02 11:34:17;;;;;;;;;;;;;;;10.15;34.61;94656.31;5032832;28;20489;-71
2023/02/02 11:36:57;;;;;;;;;;;;;;;10.24;34.75;94637.34;5034113;28;19924;-71
2023/02/02 11:39:22;;;;;;;;;;;;;;;10.22;34.04;94648.81;5032614;28;19917;-71
2023/02/02 11:41:48;;;;;;;;;;;;;;;10.11;34.77;94638.50;5016228;28;20011;-71
2023/02/02 11:44:20;;;;;;;;;;;;;;;10.18;35.12;94632.69;5016029;28;19921;-71
2023/02/02 11:46:47;;;;;;;;;;;;;;;10.28;34.81;94631.00;5032723;28;19920;-71
2023/02/02 11:49:15;;;;;;;;;;;;;;;10.18;34.72;94619.72;5032516;28;19920;-71
2023/02/02 11:51:40;;;;;;;;;;;;;;;10.28;35.15;94618.03;5033895;28;19913;-71
2023/02/02 11:54:15;;;;;;;;;;;;;;;10.42;34.76;94626.41;5032376;28;20102;-71
2023/02/02 11:56:41;;;;;;;;;;;;;;;10.34;34.62;94629.66;5016011;28;20206;-71
2023/02/02 11:59:25;;;;;;;;;;;;;;;10.45;34.86;94620.97;5032345;28;19921;-71